createdAt,value
2018-02-10T00:00:02.836Z,81.4
2018-02-10T00:00:28.939Z,81.4
2018-02-10T00:00:55.041Z,82.25
2018-02-10T00:01:21.133Z,81.77
2018-02-10T00:01:47.238Z,81.77
2018-02-10T00:02:13.343Z,82.06
2018-02-10T00:02:39.465Z,81.77
2018-02-10T00:03:05.567Z,81.77
2018-02-10T00:03:31.669Z,81.59
2018-02-10T00:03:57.767Z,81.59
2018-02-10T00:04:23.870Z,81.59
2018-02-10T00:04:49.969Z,81.77
2018-02-10T00:05:16.064Z,82.06
2018-02-10T00:05:42.169Z,81.59
2018-02-10T00:06:08.271Z,81.49
2018-02-10T00:06:34.367Z,81.68
2018-02-10T00:07:00.472Z,82.34
2018-02-10T00:07:26.568Z,81.96
2018-02-10T00:07:52.670Z,82.15
2018-02-10T00:08:18.769Z,82.15
2018-02-10T00:08:44.870Z,81.68
2018-02-10T00:09:10.968Z,81.77
2018-02-10T00:09:37.074Z,81.3
2018-02-10T00:10:03.170Z,81.68
2018-02-10T00:10:29.275Z,80.93
2018-02-10T00:10:55.388Z,80.93
2018-02-10T00:11:21.488Z,80.74
2018-02-10T00:11:47.592Z,81.3
2018-02-10T00:12:13.690Z,81.02
2018-02-10T00:12:39.792Z,80.93
2018-02-10T00:13:05.891Z,80.45
2018-02-10T00:13:31.997Z,80.55
2018-02-10T00:13:58.093Z,80.87
2018-02-10T00:14:24.199Z,80.11
2018-02-10T00:14:50.300Z,80.21
2018-02-10T00:15:16.398Z,79.74
2018-02-10T00:15:42.499Z,79.93
2018-02-10T00:16:08.601Z,79.55
2018-02-10T00:16:34.697Z,79.83
2018-02-10T00:17:00.805Z,80.02
2018-02-10T00:17:26.902Z,79.74
2018-02-10T00:17:52.996Z,79.74
2018-02-10T00:18:19.094Z,79.55
2018-02-10T00:18:45.194Z,79.36
2018-02-10T00:19:11.295Z,79.83
2018-02-10T00:19:37.395Z,79.74
2018-02-10T00:20:03.500Z,79.74
2018-02-10T00:20:29.601Z,79.74
2018-02-10T00:20:55.717Z,79.74
2018-02-10T00:21:21.816Z,79.55
2018-02-10T00:21:47.911Z,79.93
2018-02-10T00:22:14.019Z,79.83
2018-02-10T00:22:40.114Z,80.02
2018-02-10T00:23:06.213Z,79.74
2018-02-10T00:23:32.311Z,79.74
2018-02-10T00:23:58.412Z,79.74
2018-02-10T00:24:24.507Z,79.83
2018-02-10T00:24:50.610Z,80.02
2018-02-10T00:25:16.752Z,79.69
2018-02-10T00:25:42.852Z,79.74
2018-02-10T00:26:08.955Z,79.74
2018-02-10T00:26:35.071Z,79.64
2018-02-10T00:27:01.185Z,79.83
2018-02-10T00:27:27.289Z,79.55
2018-02-10T00:27:53.386Z,79.74
2018-02-10T00:28:19.489Z,79.74
2018-02-10T00:28:45.590Z,79.74
2018-02-10T00:29:11.685Z,79.83
2018-02-10T00:29:37.787Z,79.93
2018-02-10T00:30:03.888Z,79.83
2018-02-10T00:30:29.986Z,79.93
2018-02-10T00:30:56.089Z,79.74
2018-02-10T00:31:22.201Z,79.74
2018-02-10T00:31:48.342Z,79.83
2018-02-10T00:32:14.404Z,79.83
2018-02-10T00:32:40.506Z,79.93
2018-02-10T00:33:06.606Z,79.83
2018-02-10T00:33:32.708Z,79.74
2018-02-10T00:33:58.812Z,80.02
2018-02-10T00:34:24.910Z,79.93
2018-02-10T00:34:51.016Z,79.74
2018-02-10T00:35:17.112Z,79.64
2018-02-10T00:35:43.211Z,79.64
2018-02-10T00:36:09.317Z,79.93
2018-02-10T00:36:35.415Z,79.83
2018-02-10T00:37:01.522Z,79.26
2018-02-10T00:37:27.617Z,79.17
2018-02-10T00:37:53.738Z,79.45
2018-02-10T00:38:19.834Z,79.26
2018-02-10T00:38:45.945Z,79.64
2018-02-10T00:39:12.045Z,79.26
2018-02-10T00:39:38.153Z,79.55
2018-02-10T00:40:04.253Z,79.55
2018-02-10T00:40:30.360Z,79.45
2018-02-10T00:40:56.455Z,79.07
2018-02-10T00:41:22.559Z,79.64
2018-02-10T00:41:48.765Z,79.07
2018-02-10T00:42:15.636Z,79.26
2018-02-10T00:42:42.212Z,79.26
2018-02-10T00:43:08.366Z,79.17
2018-02-10T00:43:34.674Z,79.36
2018-02-10T00:44:00.739Z,79.36
2018-02-10T00:44:26.835Z,79.17
2018-02-10T00:44:53.808Z,79.55
2018-02-10T00:45:20.431Z,79.55
2018-02-10T00:45:47.184Z,79.17
2018-02-10T00:46:13.252Z,79.36
2018-02-10T00:46:39.432Z,79.74
2018-02-10T00:47:05.900Z,79.45
2018-02-10T00:47:32.427Z,79.26
2018-02-10T00:47:58.725Z,79.17
2018-02-10T00:48:24.821Z,79.26
2018-02-10T00:48:50.964Z,79.83
2018-02-10T00:49:18.058Z,79.83
2018-02-10T00:49:44.462Z,79.64
2018-02-10T00:50:10.585Z,79.64
2018-02-10T00:50:36.710Z,79.93
2018-02-10T00:51:03.159Z,79.64
2018-02-10T00:51:29.547Z,79.83
2018-02-10T00:51:55.952Z,79.45
2018-02-10T00:52:22.269Z,79.36
2018-02-10T00:52:48.485Z,79.74
2018-02-10T00:53:15.343Z,79.64
2018-02-10T00:53:41.562Z,79.64
2018-02-10T00:54:07.887Z,79.64
2018-02-10T00:54:34.093Z,79.64
2018-02-10T00:55:00.428Z,79.55
2018-02-10T00:55:26.698Z,79.64
2018-02-10T00:55:53.003Z,79.74
2018-02-10T00:56:19.150Z,79.45
2018-02-10T00:56:45.724Z,79.64
2018-02-10T00:57:12.204Z,79.93
2018-02-10T00:57:39.025Z,79.93
2018-02-10T00:58:05.122Z,80.3
2018-02-10T00:58:31.217Z,80.4
2018-02-10T00:58:57.365Z,80.4
2018-02-10T00:59:23.827Z,80.02
2018-02-10T00:59:49.957Z,79.74
2018-02-10T01:00:16.202Z,79.55
2018-02-10T01:00:42.689Z,79.64
2018-02-10T01:01:09.088Z,79.93
2018-02-10T01:01:35.142Z,79.74
2018-02-10T01:02:01.372Z,79.55
2018-02-10T01:02:27.678Z,79.83
2018-02-10T01:02:53.845Z,79.55
2018-02-10T01:03:20.016Z,79.83
2018-02-10T01:03:46.132Z,79.93
2018-02-10T01:04:12.670Z,79.74
2018-02-10T01:04:38.783Z,79.64
2018-02-10T01:05:05.067Z,79.64
2018-02-10T01:05:31.335Z,79.64
2018-02-10T01:05:57.465Z,79.55
2018-02-10T01:06:23.585Z,80.02
2018-02-10T01:06:49.856Z,79.64
2018-02-10T01:07:16.121Z,79.55
2018-02-10T01:07:42.663Z,79.93
2018-02-10T01:08:08.691Z,79.93
2018-02-10T01:08:34.810Z,79.74
2018-02-10T01:09:01.173Z,79.55
2018-02-10T01:09:27.682Z,79.74
2018-02-10T01:09:54.247Z,79.93
2018-02-10T01:10:20.479Z,80.02
2018-02-10T01:10:46.690Z,79.83
2018-02-10T01:11:12.788Z,79.93
2018-02-10T01:11:38.943Z,79.83
2018-02-10T01:12:05.326Z,79.74
2018-02-10T01:12:31.449Z,79.74
2018-02-10T01:12:57.942Z,79.93
2018-02-10T01:13:24.249Z,79.83
2018-02-10T01:13:50.323Z,79.93
2018-02-10T01:14:16.803Z,80.02
2018-02-10T01:14:42.914Z,79.64
2018-02-10T01:15:09.148Z,79.74
2018-02-10T01:15:35.298Z,79.74
2018-02-10T01:16:01.397Z,79.93
2018-02-10T01:16:27.620Z,79.64
2018-02-10T01:16:53.843Z,79.93
2018-02-10T01:17:19.917Z,79.83
2018-02-10T01:17:46.086Z,79.64
2018-02-10T01:18:12.217Z,79.55
2018-02-10T01:18:38.381Z,79.55
2018-02-10T01:19:04.657Z,79.45
2018-02-10T01:19:31.050Z,79.74
2018-02-10T01:19:57.234Z,79.93
2018-02-10T01:20:23.272Z,79.55
2018-02-10T01:20:49.493Z,79.74
2018-02-10T01:21:15.560Z,79.74
2018-02-10T01:21:41.868Z,79.74
2018-02-10T01:22:08.482Z,79.74
2018-02-10T01:22:34.708Z,79.55
2018-02-10T01:23:00.994Z,79.83
2018-02-10T01:23:27.098Z,79.93
2018-02-10T01:23:53.239Z,79.64
2018-02-10T01:24:19.369Z,80.02
2018-02-10T01:24:45.877Z,79.74
2018-02-10T01:25:12.192Z,79.83
2018-02-10T01:25:38.314Z,79.83
2018-02-10T01:26:04.475Z,79.64
2018-02-10T01:26:30.543Z,79.64
2018-02-10T01:26:57.357Z,79.26
2018-02-10T01:27:23.906Z,79.45
2018-02-10T01:27:50.235Z,79.36
2018-02-10T01:28:16.561Z,79.74
2018-02-10T01:28:43.352Z,79.26
2018-02-10T01:29:09.388Z,79.55
2018-02-10T01:29:35.545Z,79.26
2018-02-10T01:30:01.681Z,79.26
2018-02-10T01:30:27.760Z,79.26
2018-02-10T01:30:53.906Z,79.36
2018-02-10T01:31:19.994Z,79.64
2018-02-10T01:31:46.170Z,79.36
2018-02-10T01:32:12.276Z,79.17
2018-02-10T01:32:38.382Z,79.45
2018-02-10T01:33:04.485Z,79.36
2018-02-10T01:33:30.584Z,79.45
2018-02-10T01:33:56.682Z,79.36
2018-02-10T01:34:22.791Z,79.55
2018-02-10T01:34:48.884Z,79.45
2018-02-10T01:35:14.984Z,79.36
2018-02-10T01:35:41.084Z,79.74
2018-02-10T01:36:07.183Z,79.83
2018-02-10T01:36:33.281Z,79.83
2018-02-10T01:36:59.386Z,79.55
2018-02-10T01:37:25.490Z,79.55
2018-02-10T01:37:51.585Z,79.93
2018-02-10T01:38:17.690Z,80.02
2018-02-10T01:38:43.789Z,79.55
2018-02-10T01:39:09.889Z,80.02
2018-02-10T01:39:35.990Z,79.55
2018-02-10T01:40:02.093Z,79.83
2018-02-10T01:40:28.206Z,79.17
2018-02-10T01:40:54.311Z,79.55
2018-02-10T01:41:20.408Z,79.26
2018-02-10T01:41:46.509Z,79.93
2018-02-10T01:42:12.616Z,79.93
2018-02-10T01:42:38.709Z,79.83
2018-02-10T01:43:04.813Z,79.74
2018-02-10T01:43:30.916Z,79.36
2018-02-10T01:43:57.033Z,79.45
2018-02-10T01:44:23.130Z,79.26
2018-02-10T01:44:49.229Z,79.36
2018-02-10T01:45:15.325Z,79.17
2018-02-10T01:45:41.425Z,79.17
2018-02-10T01:46:07.527Z,79.36
2018-02-10T01:46:33.629Z,79.36
2018-02-10T01:46:59.729Z,79.36
2018-02-10T01:47:25.827Z,79.17
2018-02-10T01:47:51.931Z,79.36
2018-02-10T01:48:18.033Z,79.36
2018-02-10T01:48:44.131Z,79.55
2018-02-10T01:49:10.228Z,79.55
2018-02-10T01:49:36.334Z,79.55
2018-02-10T01:50:02.434Z,79.74
2018-02-10T01:50:28.534Z,79.83
2018-02-10T01:50:54.636Z,79.45
2018-02-10T01:51:20.732Z,79.45
2018-02-10T01:51:46.837Z,79.26
2018-02-10T01:52:12.938Z,79.55
2018-02-10T01:52:39.038Z,79.45
2018-02-10T01:53:05.134Z,79.36
2018-02-10T01:53:31.235Z,79.83
2018-02-10T01:53:57.330Z,79.07
2018-02-10T01:54:23.428Z,79.07
2018-02-10T01:54:49.531Z,79.83
2018-02-10T01:55:15.628Z,79.26
2018-02-10T01:55:41.736Z,79.17
2018-02-10T01:56:07.919Z,79.26
2018-02-10T01:56:34.002Z,79.07
2018-02-10T01:57:00.103Z,79.36
2018-02-10T01:57:26.209Z,79.26
2018-02-10T01:57:52.309Z,79.26
2018-02-10T01:58:18.441Z,79.55
2018-02-10T01:58:44.498Z,79.55
2018-02-10T01:59:10.663Z,79.26
2018-02-10T01:59:36.741Z,79.36
2018-02-10T02:00:02.865Z,79.64
2018-02-10T02:00:28.998Z,79.83
2018-02-10T02:00:55.095Z,79.74
2018-02-10T02:01:21.202Z,79.45
2018-02-10T02:01:47.300Z,79.36
2018-02-10T02:02:13.404Z,79.36
2018-02-10T02:02:39.501Z,78.88
2018-02-10T02:03:05.601Z,79.64
2018-02-10T02:03:31.702Z,79.26
2018-02-10T02:03:57.805Z,79.45
2018-02-10T02:04:23.916Z,79.74
2018-02-10T02:04:50.035Z,79.93
2018-02-10T02:05:16.134Z,79.93
2018-02-10T02:05:42.231Z,79.64
2018-02-10T02:06:08.345Z,79.93
2018-02-10T02:06:34.455Z,79.74
2018-02-10T02:07:00.553Z,79.55
2018-02-10T02:07:26.662Z,79.83
2018-02-10T02:07:52.750Z,79.83
2018-02-10T02:08:18.851Z,79.26
2018-02-10T02:08:44.956Z,79.36
2018-02-10T02:09:11.051Z,79.83
2018-02-10T02:09:37.153Z,79.36
2018-02-10T02:10:03.248Z,79.26
2018-02-10T02:10:29.372Z,79.36
2018-02-10T02:10:55.483Z,79.26
2018-02-10T02:11:21.586Z,79.36
2018-02-10T02:11:47.699Z,79.26
2018-02-10T02:12:13.795Z,79.17
2018-02-10T02:12:39.899Z,79.26
2018-02-10T02:13:06.023Z,79.45
2018-02-10T02:13:32.112Z,79.36
2018-02-10T02:13:58.216Z,79.36
2018-02-10T02:14:24.311Z,79.45
2018-02-10T02:14:50.411Z,79.26
2018-02-10T02:15:16.512Z,79.64
2018-02-10T02:15:42.617Z,79.26
2018-02-10T02:16:08.714Z,79.36
2018-02-10T02:16:34.842Z,78.98
2018-02-10T02:17:00.962Z,79.83
2018-02-10T02:17:27.094Z,79.45
2018-02-10T02:17:53.233Z,79.26
2018-02-10T02:18:19.348Z,79.55
2018-02-10T02:18:45.450Z,79.17
2018-02-10T02:19:11.545Z,79.45
2018-02-10T02:19:37.670Z,79.36
2018-02-10T02:20:03.774Z,79.36
2018-02-10T02:20:29.869Z,79.36
2018-02-10T02:20:55.969Z,79.55
2018-02-10T02:21:22.073Z,79.83
2018-02-10T02:21:48.178Z,79.26
2018-02-10T02:22:14.273Z,79.11
2018-02-10T02:22:40.370Z,79.3
2018-02-10T02:23:06.472Z,78.79
2018-02-10T02:23:32.603Z,79.02
2018-02-10T02:23:58.692Z,79.07
2018-02-10T02:24:24.793Z,78.92
2018-02-10T02:24:50.886Z,78.92
2018-02-10T02:25:16.990Z,78.73
2018-02-10T02:25:43.093Z,78.98
2018-02-10T02:26:09.196Z,78.98
2018-02-10T02:26:35.296Z,79.07
2018-02-10T02:27:01.397Z,79.36
2018-02-10T02:27:27.494Z,79.07
2018-02-10T02:27:53.602Z,79.26
2018-02-10T02:28:19.702Z,79.55
2018-02-10T02:28:45.801Z,79.26
2018-02-10T02:29:11.895Z,79.26
2018-02-10T02:29:38.001Z,79.17
2018-02-10T02:30:04.101Z,79.45
2018-02-10T02:30:30.210Z,79.45
2018-02-10T02:30:56.304Z,79.45
2018-02-10T02:31:22.408Z,79.17
2018-02-10T02:31:48.509Z,79.93
2018-02-10T02:32:14.606Z,79.07
2018-02-10T02:32:40.724Z,79.17
2018-02-10T02:33:06.826Z,79.07
2018-02-10T02:33:32.925Z,79.17
2018-02-10T02:33:59.027Z,79.55
2018-02-10T02:34:25.128Z,79.64
2018-02-10T02:34:51.226Z,79.17
2018-02-10T02:35:17.326Z,79.26
2018-02-10T02:35:43.422Z,79.21
2018-02-10T02:36:09.524Z,79.17
2018-02-10T02:36:35.618Z,79.39
2018-02-10T02:37:01.717Z,79.26
2018-02-10T02:37:27.822Z,79.39
2018-02-10T02:37:53.920Z,79.74
2018-02-10T02:38:20.015Z,79.36
2018-02-10T02:38:46.172Z,79.26
2018-02-10T02:39:12.251Z,79.07
2018-02-10T02:39:38.347Z,79.26
2018-02-10T02:40:04.449Z,79.58
2018-02-10T02:40:30.548Z,79.68
2018-02-10T02:40:56.649Z,79.64
2018-02-10T02:41:22.746Z,79.64
2018-02-10T02:41:48.862Z,79.3
2018-02-10T02:42:14.961Z,79.3
2018-02-10T02:42:41.063Z,79.26
2018-02-10T02:43:07.155Z,79.64
2018-02-10T02:43:33.256Z,79.26
2018-02-10T02:43:59.365Z,79.26
2018-02-10T02:44:25.476Z,79.55
2018-02-10T02:44:51.592Z,79.39
2018-02-10T02:45:17.692Z,79.68
2018-02-10T02:45:43.790Z,79.21
2018-02-10T02:46:09.893Z,79.3
2018-02-10T02:46:36.007Z,79.87
2018-02-10T02:47:02.101Z,79.49
2018-02-10T02:47:28.201Z,79.11
2018-02-10T02:47:54.299Z,79.11
2018-02-10T02:48:20.397Z,78.92
2018-02-10T02:48:46.495Z,79.21
2018-02-10T02:49:12.592Z,78.92
2018-02-10T02:49:38.688Z,78.92
2018-02-10T02:50:04.793Z,78.83
2018-02-10T02:50:30.892Z,79.02
2018-02-10T02:50:56.992Z,79.39
2018-02-10T02:51:23.095Z,79.3
2018-02-10T02:51:49.189Z,79.21
2018-02-10T02:52:15.293Z,79.02
2018-02-10T02:52:41.386Z,78.92
2018-02-10T02:53:07.490Z,78.92
2018-02-10T02:53:33.613Z,79.39
2018-02-10T02:53:59.709Z,79.58
2018-02-10T02:54:25.805Z,79.02
2018-02-10T02:54:51.909Z,79.11
2018-02-10T02:55:18.010Z,79.3
2018-02-10T02:55:44.110Z,79.11
2018-02-10T02:56:10.209Z,79.39
2018-02-10T02:56:36.305Z,79.49
2018-02-10T02:57:02.532Z,79.11
2018-02-10T02:57:28.650Z,79.11
2018-02-10T02:57:54.728Z,79.58
2018-02-10T02:58:20.833Z,79.21
2018-02-10T02:58:46.931Z,79.39
2018-02-10T02:59:13.046Z,79.58
2018-02-10T02:59:39.149Z,79.02
2018-02-10T03:00:05.263Z,79.11
2018-02-10T03:00:31.370Z,79.49
2018-02-10T03:00:57.463Z,79.11
2018-02-10T03:01:23.563Z,79.02
2018-02-10T03:01:49.679Z,79.26
2018-02-10T03:02:15.772Z,79.36
2018-02-10T03:02:41.878Z,79.49
2018-02-10T03:03:07.976Z,79.64
2018-02-10T03:03:34.116Z,79.74
2018-02-10T03:04:00.285Z,79.64
2018-02-10T03:04:26.372Z,79.83
2018-02-10T03:04:52.466Z,79.55
2018-02-10T03:05:18.570Z,80.21
2018-02-10T03:05:44.674Z,79.93
2018-02-10T03:06:10.768Z,79.87
2018-02-10T03:06:36.977Z,79.68
2018-02-10T03:07:03.089Z,80.34
2018-02-10T03:07:29.194Z,80.25
2018-02-10T03:07:55.350Z,79.58
2018-02-10T03:08:21.529Z,79.74
2018-02-10T03:08:47.684Z,79.83
2018-02-10T03:09:13.789Z,79.58
2018-02-10T03:09:39.888Z,80.06
2018-02-10T03:10:05.990Z,79.49
2018-02-10T03:10:32.561Z,80.15
2018-02-10T03:10:58.661Z,79.68
2018-02-10T03:11:24.761Z,79.68
2018-02-10T03:11:50.877Z,79.55
2018-02-10T03:12:17.006Z,80.4
2018-02-10T03:12:43.101Z,80.02
2018-02-10T03:13:09.222Z,80.25
2018-02-10T03:13:35.343Z,80.21
2018-02-10T03:14:01.442Z,79.87
2018-02-10T03:14:27.565Z,80.06
2018-02-10T03:14:53.664Z,80.15
2018-02-10T03:15:19.770Z,80.25
2018-02-10T03:15:45.936Z,80.06
2018-02-10T03:16:12.033Z,80.34
2018-02-10T03:16:38.132Z,80.34
2018-02-10T03:17:04.254Z,80.34
2018-02-10T03:17:30.352Z,80.34
2018-02-10T03:17:56.475Z,79.68
2018-02-10T03:18:22.566Z,80.06
2018-02-10T03:18:48.693Z,79.58
2018-02-10T03:19:14.804Z,79.58
2018-02-10T03:19:40.906Z,79.96
2018-02-10T03:20:07.036Z,79.87
2018-02-10T03:20:33.135Z,79.49
2018-02-10T03:20:59.270Z,79.77
2018-02-10T03:21:25.398Z,79.68
2018-02-10T03:21:51.504Z,79.87
2018-02-10T03:22:17.606Z,79.87
2018-02-10T03:22:43.709Z,79.77
2018-02-10T03:23:09.805Z,79.58
2018-02-10T03:23:35.923Z,79.49
2018-02-10T03:24:02.019Z,79.49
2018-02-10T03:24:28.117Z,79.58
2018-02-10T03:24:54.219Z,79.87
2018-02-10T03:25:20.316Z,79.58
2018-02-10T03:25:46.439Z,80.4
2018-02-10T03:26:12.553Z,80.06
2018-02-10T03:26:38.676Z,79.87
2018-02-10T03:27:04.777Z,80.02
2018-02-10T03:27:30.903Z,80.25
2018-02-10T03:27:56.998Z,80.91
2018-02-10T03:28:23.097Z,80.02
2018-02-10T03:28:49.193Z,80.58
2018-02-10T03:29:15.293Z,80.34
2018-02-10T03:29:41.397Z,80.34
2018-02-10T03:30:07.492Z,80.63
2018-02-10T03:30:33.594Z,80.25
2018-02-10T03:30:59.696Z,80.06
2018-02-10T03:31:25.796Z,80.25
2018-02-10T03:31:51.896Z,80.06
2018-02-10T03:32:18.007Z,80.25
2018-02-10T03:32:44.108Z,80.25
2018-02-10T03:33:10.205Z,80.06
2018-02-10T03:33:36.312Z,80.25
2018-02-10T03:34:02.411Z,80.06
2018-02-10T03:34:28.515Z,80.25
2018-02-10T03:34:54.612Z,80.06
2018-02-10T03:35:20.704Z,79.96
2018-02-10T03:35:46.806Z,79.96
2018-02-10T03:36:12.904Z,79.87
2018-02-10T03:36:39.008Z,80.25
2018-02-10T03:37:05.103Z,80.15
2018-02-10T03:37:31.222Z,80.53
2018-02-10T03:37:57.328Z,80.06
2018-02-10T03:38:23.420Z,80.34
2018-02-10T03:38:49.522Z,79.87
2018-02-10T03:39:15.618Z,80.91
2018-02-10T03:39:41.718Z,80.63
2018-02-10T03:40:07.822Z,80.72
2018-02-10T03:40:33.919Z,80.06
2018-02-10T03:41:00.028Z,79.87
2018-02-10T03:41:26.136Z,80.82
2018-02-10T03:41:52.239Z,80.44
2018-02-10T03:42:18.337Z,80.44
2018-02-10T03:42:44.432Z,80.63
2018-02-10T03:43:10.537Z,80.63
2018-02-10T03:43:36.649Z,80.44
2018-02-10T03:44:02.748Z,81.29
2018-02-10T03:44:28.850Z,80.63
2018-02-10T03:44:54.962Z,80.91
2018-02-10T03:45:21.064Z,80.82
2018-02-10T03:45:47.161Z,80.72
2018-02-10T03:46:13.264Z,80.72
2018-02-10T03:46:39.360Z,81.01
2018-02-10T03:47:05.463Z,80.63
2018-02-10T03:47:31.562Z,81.29
2018-02-10T03:47:57.661Z,80.63
2018-02-10T03:48:23.760Z,80.82
2018-02-10T03:48:49.868Z,80.3
2018-02-10T03:49:15.963Z,80.96
2018-02-10T03:49:42.054Z,80.72
2018-02-10T03:50:08.152Z,80.82
2018-02-10T03:50:34.257Z,80.82
2018-02-10T03:51:00.357Z,80.34
2018-02-10T03:51:26.456Z,80.53
2018-02-10T03:51:52.557Z,80.72
2018-02-10T03:52:18.648Z,81.2
2018-02-10T03:52:44.753Z,80.91
2018-02-10T03:53:10.849Z,80.34
2018-02-10T03:53:36.944Z,80.34
2018-02-10T03:54:03.044Z,80.63
2018-02-10T03:54:29.140Z,80.63
2018-02-10T03:54:55.244Z,80.63
2018-02-10T03:55:21.339Z,80.34
2018-02-10T03:55:47.444Z,80.72
2018-02-10T03:56:13.536Z,80.63
2018-02-10T03:56:39.636Z,80.63
2018-02-10T03:57:05.743Z,80.63
2018-02-10T03:57:31.840Z,80.63
2018-02-10T03:57:57.943Z,80.91
2018-02-10T03:58:24.042Z,80.82
2018-02-10T03:58:50.141Z,80.44
2018-02-10T03:59:16.242Z,80.63
2018-02-10T03:59:42.343Z,80.63
2018-02-10T04:00:08.444Z,80.72
2018-02-10T04:00:34.539Z,81.38
2018-02-10T04:01:00.643Z,81.57
2018-02-10T04:01:26.754Z,81.34
2018-02-10T04:01:52.854Z,81.15
2018-02-10T04:02:18.991Z,81.34
2018-02-10T04:02:45.087Z,81.92
2018-02-10T04:03:11.185Z,81.86
2018-02-10T04:03:37.302Z,81.57
2018-02-10T04:04:03.398Z,81.29
2018-02-10T04:04:29.501Z,81.2
2018-02-10T04:04:55.618Z,81.38
2018-02-10T04:05:21.719Z,81.29
2018-02-10T04:05:47.821Z,81.1
2018-02-10T04:06:13.913Z,80.82
2018-02-10T04:06:40.011Z,80.25
2018-02-10T04:07:06.114Z,80.82
2018-02-10T04:07:32.209Z,80.91
2018-02-10T04:07:58.314Z,80.63
2018-02-10T04:08:24.415Z,80.34
2018-02-10T04:08:50.511Z,81.01
2018-02-10T04:09:16.616Z,81.1
2018-02-10T04:09:42.713Z,80.15
2018-02-10T04:10:08.809Z,80.63
2018-02-10T04:10:34.910Z,80.44
2018-02-10T04:11:01.014Z,80.72
2018-02-10T04:11:27.108Z,80.44
2018-02-10T04:11:53.216Z,81.01
2018-02-10T04:12:19.314Z,80.72
2018-02-10T04:12:45.420Z,80.53
2018-02-10T04:13:11.510Z,80.44
2018-02-10T04:13:37.605Z,80.44
2018-02-10T04:14:03.711Z,81.2
2018-02-10T04:14:29.829Z,80.25
2018-02-10T04:14:55.929Z,80.53
2018-02-10T04:15:22.050Z,80.63
2018-02-10T04:15:48.145Z,80.53
2018-02-10T04:16:14.246Z,80.63
2018-02-10T04:16:40.341Z,80.63
2018-02-10T04:17:06.444Z,80.44
2018-02-10T04:17:32.538Z,80.44
2018-02-10T04:17:58.642Z,80.53
2018-02-10T04:18:24.737Z,81.1
2018-02-10T04:18:50.848Z,81.2
2018-02-10T04:19:16.945Z,80.63
2018-02-10T04:19:43.040Z,80.44
2018-02-10T04:20:09.141Z,80.53
2018-02-10T04:20:35.232Z,80.44
2018-02-10T04:21:01.337Z,80.82
2018-02-10T04:21:27.439Z,80.82
2018-02-10T04:21:53.550Z,81.01
2018-02-10T04:22:19.682Z,81.29
2018-02-10T04:22:45.780Z,81.29
2018-02-10T04:23:11.885Z,81.67
2018-02-10T04:23:37.978Z,81.57
2018-02-10T04:24:04.073Z,81.38
2018-02-10T04:24:30.190Z,81.57
2018-02-10T04:24:56.287Z,81.48
2018-02-10T04:25:22.388Z,81.38
2018-02-10T04:25:48.484Z,81.2
2018-02-10T04:26:14.588Z,81.48
2018-02-10T04:26:40.707Z,81.86
2018-02-10T04:27:06.805Z,81.48
2018-02-10T04:27:32.904Z,82.24
2018-02-10T04:27:59.008Z,82.33
2018-02-10T04:28:25.110Z,82.43
2018-02-10T04:28:51.212Z,83.09
2018-02-10T04:29:17.316Z,82.71
2018-02-10T04:29:43.431Z,83.09
2018-02-10T04:30:09.524Z,83.09
2018-02-10T04:30:35.625Z,83.75
2018-02-10T04:31:01.716Z,83.47
2018-02-10T04:31:27.818Z,83.75
2018-02-10T04:31:53.915Z,84.04
2018-02-10T04:32:20.018Z,84.32
2018-02-10T04:32:46.119Z,84.51
2018-02-10T04:33:12.212Z,84.32
2018-02-10T04:33:38.315Z,84.42
2018-02-10T04:34:04.414Z,83.94
2018-02-10T04:34:30.514Z,83.85
2018-02-10T04:34:56.628Z,83.94
2018-02-10T04:35:22.721Z,84.04
2018-02-10T04:35:48.825Z,83.94
2018-02-10T04:36:14.927Z,84.04
2018-02-10T04:36:41.020Z,84.23
2018-02-10T04:37:07.118Z,84.42
2018-02-10T04:37:33.219Z,84.99
2018-02-10T04:37:59.323Z,85.46
2018-02-10T04:38:25.416Z,85.55
2018-02-10T04:38:51.514Z,85.46
2018-02-10T04:39:17.618Z,85.55
2018-02-10T04:39:43.735Z,85.17
2018-02-10T04:40:09.848Z,85.36
2018-02-10T04:40:35.951Z,85.46
2018-02-10T04:41:02.051Z,85.46
2018-02-10T04:41:28.148Z,85.65
2018-02-10T04:41:54.252Z,85.84
2018-02-10T04:42:20.348Z,86.12
2018-02-10T04:42:46.452Z,86.79
2018-02-10T04:43:12.556Z,88.02
2018-02-10T04:43:38.657Z,88.11
2018-02-10T04:44:04.749Z,88.3
2018-02-10T04:44:30.846Z,88.59
2018-02-10T04:44:56.946Z,88.87
2018-02-10T04:45:23.050Z,88.4
2018-02-10T04:45:49.148Z,88.78
2018-02-10T04:46:15.247Z,88.96
2018-02-10T04:46:41.343Z,89.06
2018-02-10T04:47:07.442Z,89.15
2018-02-10T04:47:33.547Z,88.96
2018-02-10T04:47:59.647Z,89.44
2018-02-10T04:48:25.746Z,89.72
2018-02-10T04:48:51.844Z,89.53
2018-02-10T04:49:17.942Z,89.72
2018-02-10T04:49:44.044Z,90.48
2018-02-10T04:50:10.139Z,90.29
2018-02-10T04:50:36.243Z,90.01
2018-02-10T04:51:02.347Z,90.01
2018-02-10T04:51:28.438Z,90.58
2018-02-10T04:51:54.541Z,89.91
2018-02-10T04:52:20.645Z,90.39
2018-02-10T04:52:46.770Z,90.29
2018-02-10T04:53:12.869Z,90.1
2018-02-10T04:53:38.972Z,90.1
2018-02-10T04:54:05.066Z,90.67
2018-02-10T04:54:31.172Z,90.77
2018-02-10T04:54:57.271Z,90.58
2018-02-10T04:55:23.364Z,90.86
2018-02-10T04:55:49.467Z,91.33
2018-02-10T04:56:15.563Z,90.77
2018-02-10T04:56:41.668Z,91.24
2018-02-10T04:57:07.764Z,91.33
2018-02-10T04:57:33.862Z,91.62
2018-02-10T04:57:59.961Z,91.9
2018-02-10T04:58:26.065Z,91.9
2018-02-10T04:58:52.166Z,91.62
2018-02-10T04:59:18.260Z,91.9
2018-02-10T04:59:44.359Z,91.43
2018-02-10T05:00:10.485Z,92.28
2018-02-10T05:00:36.578Z,91.81
2018-02-10T05:01:02.681Z,91.81
2018-02-10T05:01:28.778Z,92.57
2018-02-10T05:01:54.899Z,92.38
2018-02-10T05:02:21.000Z,92.47
2018-02-10T05:02:47.097Z,92.28
2018-02-10T05:03:13.197Z,92.57
2018-02-10T05:03:39.301Z,91.81
2018-02-10T05:04:05.406Z,92.94
2018-02-10T05:04:31.498Z,92.85
2018-02-10T05:04:57.601Z,93.32
2018-02-10T05:05:23.698Z,93.32
2018-02-10T05:05:49.803Z,93.42
2018-02-10T05:06:15.898Z,93.51
2018-02-10T05:06:42.002Z,93.7
2018-02-10T05:07:08.094Z,93.51
2018-02-10T05:07:34.201Z,93.8
2018-02-10T05:08:00.304Z,93.8
2018-02-10T05:08:26.401Z,93.7
2018-02-10T05:08:52.506Z,93.51
2018-02-10T05:09:18.595Z,93.23
2018-02-10T05:09:44.700Z,93.13
2018-02-10T05:10:10.798Z,92.94
2018-02-10T05:10:36.898Z,93.13
2018-02-10T05:11:02.995Z,93.32
2018-02-10T05:11:29.100Z,93.89
2018-02-10T05:11:55.201Z,94.37
2018-02-10T05:12:21.295Z,93.99
2018-02-10T05:12:47.399Z,94.46
2018-02-10T05:13:13.524Z,94.08
2018-02-10T05:13:39.622Z,94.56
2018-02-10T05:14:05.725Z,94.74
2018-02-10T05:14:31.842Z,94.84
2018-02-10T05:14:57.944Z,94.65
2018-02-10T05:15:24.065Z,94.46
2018-02-10T05:15:50.172Z,94.65
2018-02-10T05:16:16.273Z,94.74
2018-02-10T05:16:42.366Z,94.46
2018-02-10T05:17:08.466Z,94.84
2018-02-10T05:17:34.576Z,94.84
2018-02-10T05:18:00.671Z,94.74
2018-02-10T05:18:26.771Z,95.5
2018-02-10T05:18:52.883Z,95.22
2018-02-10T05:19:18.969Z,95.69
2018-02-10T05:19:45.067Z,95.5
2018-02-10T05:20:11.169Z,95.31
2018-02-10T05:20:37.263Z,95.98
2018-02-10T05:21:03.385Z,95.98
2018-02-10T05:21:29.466Z,95.79
2018-02-10T05:21:55.560Z,95.79
2018-02-10T05:22:21.658Z,95.88
2018-02-10T05:22:47.757Z,96.17
2018-02-10T05:23:13.861Z,96.64
2018-02-10T05:23:39.959Z,96.17
2018-02-10T05:24:06.054Z,97.02
2018-02-10T05:24:32.154Z,96.07
2018-02-10T05:24:58.251Z,96.07
2018-02-10T05:25:24.355Z,96.07
2018-02-10T05:25:50.452Z,96.07
2018-02-10T05:26:16.570Z,96.55
2018-02-10T05:26:42.673Z,96.07
2018-02-10T05:27:08.770Z,97.11
2018-02-10T05:27:34.863Z,96.92
2018-02-10T05:28:00.967Z,96.17
2018-02-10T05:28:27.069Z,96.07
2018-02-10T05:28:53.184Z,96.17
2018-02-10T05:29:19.286Z,96.45
2018-02-10T05:29:45.379Z,95.6
2018-02-10T05:30:11.475Z,95.88
2018-02-10T05:30:37.580Z,95.79
2018-02-10T05:31:03.675Z,95.88
2018-02-10T05:31:29.776Z,95.98
2018-02-10T05:31:55.877Z,95.88
2018-02-10T05:32:21.972Z,95.79
2018-02-10T05:32:48.071Z,95.69
2018-02-10T05:33:14.174Z,95.6
2018-02-10T05:33:40.275Z,95.79
2018-02-10T05:34:06.364Z,95.69
2018-02-10T05:34:32.468Z,95.31
2018-02-10T05:34:58.579Z,95.69
2018-02-10T05:35:24.680Z,95.6
2018-02-10T05:35:50.783Z,95.69
2018-02-10T05:36:16.901Z,95.6
2018-02-10T05:36:42.995Z,95.22
2018-02-10T05:37:09.101Z,95.31